sensor_id;sensor_type;location;lat;lon;timestamp;P1;durP1;ratioP1;P2;durP2;ratioP2
50495;SDS011;38806;51.554;5.704;2023-11-18T00:01:02;50.13;;;26.88;;
50495;SDS011;38806;51.554;5.704;2023-11-18T00:03:03;57.35;;;28.33;;
50495;SDS011;38806;51.554;5.704;2023-11-18T00:05:04;56.97;;;30.42;;
50495;SDS011;38806;51.554;5.704;2023-11-18T00:07:04;57.25;;;28.48;;
50495;SDS011;38806;51.554;5.704;2023-11-18T00:09:04;59.15;;;30.92;;
50495;SDS011;38806;51.554;5.704;2023-11-18T00:11:06;47.75;;;27.17;;
50495;SDS011;38806;51.554;5.704;2023-11-18T00:13:06;52.85;;;30.15;;
50495;SDS011;38806;51.554;5.704;2023-11-18T00:15:07;52.72;;;27.17;;
50495;SDS011;38806;51.554;5.704;2023-11-18T00:17:09;51.20;;;28.23;;
50495;SDS011;38806;51.554;5.704;2023-11-18T00:19:10;55.47;;;28.88;;
50495;SDS011;38806;51.554;5.704;2023-11-18T00:21:10;49.55;;;27.60;;
50495;SDS011;38806;51.554;5.704;2023-11-18T00:23:10;53.15;;;28.63;;
50495;SDS011;38806;51.554;5.704;2023-11-18T00:25:10;53.40;;;29.08;;
50495;SDS011;38806;51.554;5.704;2023-11-18T00:27:11;49.65;;;27.55;;
50495;SDS011;38806;51.554;5.704;2023-11-18T00:29:11;44.75;;;23.92;;
50495;SDS011;38806;51.554;5.704;2023-11-18T00:31:11;42.17;;;24.77;;
50495;SDS011;38806;51.554;5.704;2023-11-18T00:33:12;47.70;;;25.58;;
50495;SDS011;38806;51.554;5.704;2023-11-18T00:35:12;43.05;;;27.00;;
50495;SDS011;38806;51.554;5.704;2023-11-18T00:37:12;47.45;;;25.35;;
50495;SDS011;38806;51.554;5.704;2023-11-18T00:39:12;39.13;;;22.27;;
50495;SDS011;38806;51.554;5.704;2023-11-18T00:41:13;48.17;;;25.75;;
50495;SDS011;38806;51.554;5.704;2023-11-18T00:43:13;46.75;;;26.50;;
50495;SDS011;38806;51.554;5.704;2023-11-18T00:45:13;47.90;;;26.35;;
50495;SDS011;38806;51.554;5.704;2023-11-18T00:47:13;46.63;;;25.38;;
50495;SDS011;38806;51.554;5.704;2023-11-18T00:49:14;46.83;;;25.27;;
50495;SDS011;38806;51.554;5.704;2023-11-18T00:51:14;45.03;;;25.55;;
50495;SDS011;38806;51.554;5.704;2023-11-18T00:53:14;46.28;;;24.95;;
50495;SDS011;38806;51.554;5.704;2023-11-18T00:55:14;45.90;;;25.30;;
50495;SDS011;38806;51.554;5.704;2023-11-18T00:57:14;48.85;;;27.02;;
50495;SDS011;38806;51.554;5.704;2023-11-18T00:59:14;45.50;;;25.98;;
50495;SDS011;38806;51.554;5.704;2023-11-18T01:01:15;51.45;;;28.30;;
50495;SDS011;38806;51.554;5.704;2023-11-18T01:03:17;48.03;;;26.02;;
50495;SDS011;38806;51.554;5.704;2023-11-18T01:05:18;56.03;;;29.02;;
50495;SDS011;38806;51.554;5.704;2023-11-18T01:07:18;52.53;;;28.85;;
50495;SDS011;38806;51.554;5.704;2023-11-18T01:09:18;54.30;;;28.75;;
50495;SDS011;38806;51.554;5.704;2023-11-18T01:11:19;55.88;;;29.02;;
50495;SDS011;38806;51.554;5.704;2023-11-18T01:13:19;49.97;;;26.58;;
50495;SDS011;38806;51.554;5.704;2023-11-18T01:15:20;46.92;;;26.52;;
50495;SDS011;38806;51.554;5.704;2023-11-18T01:17:20;45.80;;;24.70;;
50495;SDS011;38806;51.554;5.704;2023-11-18T01:19:22;43.65;;;26.60;;
50495;SDS011;38806;51.554;5.704;2023-11-18T01:21:23;40.30;;;24.45;;
50495;SDS011;38806;51.554;5.704;2023-11-18T01:23:23;47.33;;;25.92;;
50495;SDS011;38806;51.554;5.704;2023-11-18T01:25:24;58.38;;;29.48;;
50495;SDS011;38806;51.554;5.704;2023-11-18T01:27:24;49.20;;;27.15;;
50495;SDS011;38806;51.554;5.704;2023-11-18T01:29:25;46.83;;;27.13;;
50495;SDS011;38806;51.554;5.704;2023-11-18T01:31:25;51.80;;;27.90;;
50495;SDS011;38806;51.554;5.704;2023-11-18T01:33:25;46.22;;;27.05;;
50495;SDS011;38806;51.554;5.704;2023-11-18T01:35:26;52.33;;;27.00;;
50495;SDS011;38806;51.554;5.704;2023-11-18T01:37:27;47.50;;;26.05;;
50495;SDS011;38806;51.554;5.704;2023-11-18T01:39:27;41.63;;;24.10;;
50495;SDS011;38806;51.554;5.704;2023-11-18T01:41:28;43.55;;;24.85;;
50495;SDS011;38806;51.554;5.704;2023-11-18T01:43:32;49.25;;;25.45;;
50495;SDS011;38806;51.554;5.704;2023-11-18T01:45:32;50.20;;;28.00;;
50495;SDS011;38806;51.554;5.704;2023-11-18T01:47:33;53.92;;;25.70;;
50495;SDS011;38806;51.554;5.704;2023-11-18T01:49:34;43.47;;;23.95;;
50495;SDS011;38806;51.554;5.704;2023-11-18T01:51:37;42.55;;;24.92;;
50495;SDS011;38806;51.554;5.704;2023-11-18T01:53:37;38.80;;;25.13;;
50495;SDS011;38806;51.554;5.704;2023-11-18T01:55:41;41.03;;;21.90;;
50495;SDS011;38806;51.554;5.704;2023-11-18T01:57:42;38.90;;;25.35;;
50495;SDS011;38806;51.554;5.704;2023-11-18T01:59:43;44.60;;;23.10;;
50495;SDS011;38806;51.554;5.704;2023-11-18T02:01:50;51.38;;;24.48;;
50495;SDS011;38806;51.554;5.704;2023-11-18T02:03:52;43.97;;;23.45;;
50495;SDS011;38806;51.554;5.704;2023-11-18T02:05:53;55.53;;;29.67;;
50495;SDS011;38806;51.554;5.704;2023-11-18T02:07:53;46.97;;;26.05;;
50495;SDS011;38806;51.554;5.704;2023-11-18T02:09:53;41.47;;;25.35;;
50495;SDS011;38806;51.554;5.704;2023-11-18T02:12:16;55.63;;;30.02;;
50495;SDS011;38806;51.554;5.704;2023-11-18T02:14:20;52.08;;;27.88;;
50495;SDS011;38806;51.554;5.704;2023-11-18T02:16:20;53.95;;;29.88;;
50495;SDS011;38806;51.554;5.704;2023-11-18T02:18:24;60.13;;;30.90;;
50495;SDS011;38806;51.554;5.704;2023-11-18T02:20:24;64.85;;;28.80;;
50495;SDS011;38806;51.554;5.704;2023-11-18T02:22:25;55.47;;;29.15;;
50495;SDS011;38806;51.554;5.704;2023-11-18T02:26:27;52.97;;;28.65;;
50495;SDS011;38806;51.554;5.704;2023-11-18T02:28:27;60.53;;;29.42;;
50495;SDS011;38806;51.554;5.704;2023-11-18T02:30:28;64.38;;;30.05;;
50495;SDS011;38806;51.554;5.704;2023-11-18T02:32:33;59.55;;;32.95;;
50495;SDS011;38806;51.554;5.704;2023-11-18T02:34:35;50.63;;;29.38;;
50495;SDS011;38806;51.554;5.704;2023-11-18T02:36:48;46.65;;;28.25;;
50495;SDS011;38806;51.554;5.704;2023-11-18T02:38:49;51.17;;;29.27;;
50495;SDS011;38806;51.554;5.704;2023-11-18T02:40:51;57.28;;;33.38;;
50495;SDS011;38806;51.554;5.704;2023-11-18T02:42:53;62.08;;;27.83;;
50495;SDS011;38806;51.554;5.704;2023-11-18T02:44:54;50.65;;;30.15;;
50495;SDS011;38806;51.554;5.704;2023-11-18T02:46:59;51.90;;;31.30;;
50495;SDS011;38806;51.554;5.704;2023-11-18T02:49:00;52.15;;;31.98;;
50495;SDS011;38806;51.554;5.704;2023-11-18T02:51:01;52.38;;;29.52;;
50495;SDS011;38806;51.554;5.704;2023-11-18T02:53:01;53.78;;;29.77;;
50495;SDS011;38806;51.554;5.704;2023-11-18T02:55:02;43.17;;;26.33;;
50495;SDS011;38806;51.554;5.704;2023-11-18T02:57:03;53.55;;;32.55;;
50495;SDS011;38806;51.554;5.704;2023-11-18T02:59:03;53.65;;;31.75;;
50495;SDS011;38806;51.554;5.704;2023-11-18T03:01:06;53.75;;;31.85;;
50495;SDS011;38806;51.554;5.704;2023-11-18T03:03:06;51.00;;;27.77;;
50495;SDS011;38806;51.554;5.704;2023-11-18T03:05:07;45.72;;;27.50;;
50495;SDS011;38806;51.554;5.704;2023-11-18T03:07:07;55.08;;;29.45;;
50495;SDS011;38806;51.554;5.704;2023-11-18T03:09:08;51.83;;;30.45;;
50495;SDS011;38806;51.554;5.704;2023-11-18T03:11:10;44.92;;;27.38;;
50495;SDS011;38806;51.554;5.704;2023-11-18T03:13:10;56.38;;;28.48;;
50495;SDS011;38806;51.554;5.704;2023-11-18T03:15:12;50.40;;;30.67;;
50495;SDS011;38806;51.554;5.704;2023-11-18T03:17:12;46.30;;;27.27;;
50495;SDS011;38806;51.554;5.704;2023-11-18T03:19:13;47.67;;;26.65;;
50495;SDS011;38806;51.554;5.704;2023-11-18T03:21:14;49.15;;;29.45;;
50495;SDS011;38806;51.554;5.704;2023-11-18T03:23:14;48.90;;;29.02;;
50495;SDS011;38806;51.554;5.704;2023-11-18T03:25:15;42.78;;;24.80;;
50495;SDS011;38806;51.554;5.704;2023-11-18T03:27:15;49.30;;;28.35;;
50495;SDS011;38806;51.554;5.704;2023-11-18T03:29:16;48.75;;;27.95;;
50495;SDS011;38806;51.554;5.704;2023-11-18T03:31:16;47.75;;;27.27;;
50495;SDS011;38806;51.554;5.704;2023-11-18T03:33:16;44.70;;;23.52;;
50495;SDS011;38806;51.554;5.704;2023-11-18T03:35:17;52.97;;;30.75;;
50495;SDS011;38806;51.554;5.704;2023-11-18T03:37:17;43.42;;;24.60;;
50495;SDS011;38806;51.554;5.704;2023-11-18T03:39:17;50.75;;;31.40;;
50495;SDS011;38806;51.554;5.704;2023-11-18T03:41:17;51.95;;;30.48;;
50495;SDS011;38806;51.554;5.704;2023-11-18T03:43:18;50.30;;;27.05;;
50495;SDS011;38806;51.554;5.704;2023-11-18T03:45:19;44.50;;;28.63;;
50495;SDS011;38806;51.554;5.704;2023-11-18T03:47:20;46.75;;;29.55;;
50495;SDS011;38806;51.554;5.704;2023-11-18T03:49:24;52.63;;;28.73;;
50495;SDS011;38806;51.554;5.704;2023-11-18T03:51:24;49.03;;;26.95;;
50495;SDS011;38806;51.554;5.704;2023-11-18T03:53:24;44.55;;;28.02;;
50495;SDS011;38806;51.554;5.704;2023-11-18T03:55:24;47.72;;;27.67;;
50495;SDS011;38806;51.554;5.704;2023-11-18T03:57:28;51.85;;;30.45;;
50495;SDS011;38806;51.554;5.704;2023-11-18T03:59:28;48.67;;;28.80;;
50495;SDS011;38806;51.554;5.704;2023-11-18T04:01:28;49.42;;;28.08;;
50495;SDS011;38806;51.554;5.704;2023-11-18T04:03:28;54.42;;;30.35;;
50495;SDS011;38806;51.554;5.704;2023-11-18T04:05:28;44.67;;;27.73;;
50495;SDS011;38806;51.554;5.704;2023-11-18T04:07:29;52.33;;;33.22;;
50495;SDS011;38806;51.554;5.704;2023-11-18T04:09:29;50.40;;;26.77;;
50495;SDS011;38806;51.554;5.704;2023-11-18T04:11:29;49.67;;;27.20;;
50495;SDS011;38806;51.554;5.704;2023-11-18T04:13:30;49.05;;;29.40;;
50495;SDS011;38806;51.554;5.704;2023-11-18T04:15:30;42.25;;;23.83;;
50495;SDS011;38806;51.554;5.704;2023-11-18T04:17:31;38.22;;;25.25;;
50495;SDS011;38806;51.554;5.704;2023-11-18T04:19:31;59.63;;;29.13;;
50495;SDS011;38806;51.554;5.704;2023-11-18T04:21:31;44.03;;;26.58;;
50495;SDS011;38806;51.554;5.704;2023-11-18T04:23:32;46.78;;;27.80;;
50495;SDS011;38806;51.554;5.704;2023-11-18T04:25:32;44.40;;;27.58;;
50495;SDS011;38806;51.554;5.704;2023-11-18T04:27:33;47.92;;;25.15;;
50495;SDS011;38806;51.554;5.704;2023-11-18T04:29:33;54.83;;;28.77;;
50495;SDS011;38806;51.554;5.704;2023-11-18T04:31:36;49.30;;;28.00;;
50495;SDS011;38806;51.554;5.704;2023-11-18T04:33:37;50.00;;;28.58;;
50495;SDS011;38806;51.554;5.704;2023-11-18T04:35:37;51.90;;;26.73;;
50495;SDS011;38806;51.554;5.704;2023-11-18T04:37:37;52.78;;;30.88;;
50495;SDS011;38806;51.554;5.704;2023-11-18T04:39:38;55.50;;;28.52;;
50495;SDS011;38806;51.554;5.704;2023-11-18T04:41:38;55.65;;;28.58;;
50495;SDS011;38806;51.554;5.704;2023-11-18T04:43:38;53.42;;;30.25;;
50495;SDS011;38806;51.554;5.704;2023-11-18T04:45:43;53.55;;;30.42;;
50495;SDS011;38806;51.554;5.704;2023-11-18T04:47:43;52.53;;;29.05;;
50495;SDS011;38806;51.554;5.704;2023-11-18T04:49:44;47.92;;;27.83;;
50495;SDS011;38806;51.554;5.704;2023-11-18T04:51:45;51.72;;;29.63;;
50495;SDS011;38806;51.554;5.704;2023-11-18T04:53:45;61.80;;;28.33;;
50495;SDS011;38806;51.554;5.704;2023-11-18T04:55:45;60.15;;;33.85;;
50495;SDS011;38806;51.554;5.704;2023-11-18T04:57:45;51.30;;;28.75;;
50495;SDS011;38806;51.554;5.704;2023-11-18T04:59:45;50.88;;;30.23;;
50495;SDS011;38806;51.554;5.704;2023-11-18T05:01:46;57.45;;;30.67;;
50495;SDS011;38806;51.554;5.704;2023-11-18T05:03:46;55.90;;;33.08;;
50495;SDS011;38806;51.554;5.704;2023-11-18T05:05:46;59.30;;;30.92;;
50495;SDS011;38806;51.554;5.704;2023-11-18T05:07:47;55.63;;;30.05;;
50495;SDS011;38806;51.554;5.704;2023-11-18T05:09:47;59.92;;;32.95;;
50495;SDS011;38806;51.554;5.704;2023-11-18T05:11:47;56.35;;;32.92;;
50495;SDS011;38806;51.554;5.704;2023-11-18T05:13:48;58.15;;;33.10;;
50495;SDS011;38806;51.554;5.704;2023-11-18T05:15:49;49.08;;;28.52;;
50495;SDS011;38806;51.554;5.704;2023-11-18T05:17:50;47.67;;;28.13;;
50495;SDS011;38806;51.554;5.704;2023-11-18T05:19:50;53.83;;;29.10;;
50495;SDS011;38806;51.554;5.704;2023-11-18T05:21:51;53.28;;;28.92;;
50495;SDS011;38806;51.554;5.704;2023-11-18T05:23:51;45.72;;;28.52;;
50495;SDS011;38806;51.554;5.704;2023-11-18T05:25:51;47.08;;;27.85;;
50495;SDS011;38806;51.554;5.704;2023-11-18T05:27:51;47.17;;;29.98;;
50495;SDS011;38806;51.554;5.704;2023-11-18T05:29:51;50.33;;;30.60;;
50495;SDS011;38806;51.554;5.704;2023-11-18T05:31:54;45.58;;;28.15;;
50495;SDS011;38806;51.554;5.704;2023-11-18T05:33:54;41.90;;;29.52;;
50495;SDS011;38806;51.554;5.704;2023-11-18T05:35:55;44.22;;;28.50;;
50495;SDS011;38806;51.554;5.704;2023-11-18T05:37:55;47.45;;;29.20;;
50495;SDS011;38806;51.554;5.704;2023-11-18T05:39:55;45.00;;;27.08;;
50495;SDS011;38806;51.554;5.704;2023-11-18T05:42:06;45.63;;;28.70;;
50495;SDS011;38806;51.554;5.704;2023-11-18T05:44:08;43.78;;;28.48;;
50495;SDS011;38806;51.554;5.704;2023-11-18T05:46:09;49.80;;;29.63;;
50495;SDS011;38806;51.554;5.704;2023-11-18T05:48:22;50.75;;;29.15;;
50495;SDS011;38806;51.554;5.704;2023-11-18T05:50:23;40.83;;;27.42;;
50495;SDS011;38806;51.554;5.704;2023-11-18T05:52:26;49.60;;;28.17;;
50495;SDS011;38806;51.554;5.704;2023-11-18T05:54:27;43.28;;;26.23;;
50495;SDS011;38806;51.554;5.704;2023-11-18T05:56:27;47.90;;;28.70;;
50495;SDS011;38806;51.554;5.704;2023-11-18T05:58:27;44.50;;;28.13;;
50495;SDS011;38806;51.554;5.704;2023-11-18T06:00:28;41.33;;;25.80;;
50495;SDS011;38806;51.554;5.704;2023-11-18T06:02:30;39.85;;;24.98;;
50495;SDS011;38806;51.554;5.704;2023-11-18T06:04:31;45.92;;;25.58;;
50495;SDS011;38806;51.554;5.704;2023-11-18T06:06:31;41.72;;;25.42;;
50495;SDS011;38806;51.554;5.704;2023-11-18T06:08:32;44.55;;;25.52;;
50495;SDS011;38806;51.554;5.704;2023-11-18T06:10:32;45.63;;;26.23;;
50495;SDS011;38806;51.554;5.704;2023-11-18T06:12:34;39.30;;;23.67;;
50495;SDS011;38806;51.554;5.704;2023-11-18T06:14:38;41.85;;;25.50;;
50495;SDS011;38806;51.554;5.704;2023-11-18T06:16:39;43.58;;;28.70;;
50495;SDS011;38806;51.554;5.704;2023-11-18T06:18:42;38.75;;;24.15;;
50495;SDS011;38806;51.554;5.704;2023-11-18T06:20:44;46.35;;;25.60;;
50495;SDS011;38806;51.554;5.704;2023-11-18T06:22:44;44.92;;;23.80;;
50495;SDS011;38806;51.554;5.704;2023-11-18T06:24:44;34.13;;;24.27;;
50495;SDS011;38806;51.554;5.704;2023-11-18T06:26:45;44.55;;;25.10;;
50495;SDS011;38806;51.554;5.704;2023-11-18T06:28:45;47.15;;;25.88;;
50495;SDS011;38806;51.554;5.704;2023-11-18T06:30:45;39.80;;;22.52;;
50495;SDS011;38806;51.554;5.704;2023-11-18T06:32:46;37.33;;;23.50;;
50495;SDS011;38806;51.554;5.704;2023-11-18T06:34:48;35.92;;;22.52;;
50495;SDS011;38806;51.554;5.704;2023-11-18T06:36:49;35.13;;;21.63;;
50495;SDS011;38806;51.554;5.704;2023-11-18T06:38:49;36.22;;;21.33;;
50495;SDS011;38806;51.554;5.704;2023-11-18T06:40:50;34.15;;;22.23;;
50495;SDS011;38806;51.554;5.704;2023-11-18T06:42:52;28.42;;;17.88;;
50495;SDS011;38806;51.554;5.704;2023-11-18T06:45:01;39.72;;;22.48;;
50495;SDS011;38806;51.554;5.704;2023-11-18T06:47:01;30.38;;;19.02;;
50495;SDS011;38806;51.554;5.704;2023-11-18T06:49:02;36.50;;;19.02;;
50495;SDS011;38806;51.554;5.704;2023-11-18T06:51:06;37.13;;;20.60;;
50495;SDS011;38806;51.554;5.704;2023-11-18T06:53:08;29.77;;;19.65;;
50495;SDS011;38806;51.554;5.704;2023-11-18T06:55:08;32.00;;;19.25;;
50495;SDS011;38806;51.554;5.704;2023-11-18T06:57:08;27.50;;;19.40;;
50495;SDS011;38806;51.554;5.704;2023-11-18T06:59:09;29.90;;;16.65;;
50495;SDS011;38806;51.554;5.704;2023-11-18T07:01:13;37.47;;;19.83;;
50495;SDS011;38806;51.554;5.704;2023-11-18T07:03:14;40.28;;;17.77;;
50495;SDS011;38806;51.554;5.704;2023-11-18T07:05:15;32.50;;;18.35;;
50495;SDS011;38806;51.554;5.704;2023-11-18T07:07:15;36.42;;;16.85;;
50495;SDS011;38806;51.554;5.704;2023-11-18T07:09:16;27.40;;;16.88;;
50495;SDS011;38806;51.554;5.704;2023-11-18T07:11:20;26.27;;;15.75;;
50495;SDS011;38806;51.554;5.704;2023-11-18T07:13:21;29.85;;;17.13;;
50495;SDS011;38806;51.554;5.704;2023-11-18T07:15:23;28.75;;;18.35;;
50495;SDS011;38806;51.554;5.704;2023-11-18T07:17:23;32.22;;;16.98;;
50495;SDS011;38806;51.554;5.704;2023-11-18T07:19:23;33.03;;;17.08;;
50495;SDS011;38806;51.554;5.704;2023-11-18T07:21:23;26.17;;;14.70;;
50495;SDS011;38806;51.554;5.704;2023-11-18T07:23:24;27.83;;;14.45;;
50495;SDS011;38806;51.554;5.704;2023-11-18T07:25:24;29.50;;;15.80;;
50495;SDS011;38806;51.554;5.704;2023-11-18T07:27:24;26.42;;;15.15;;
50495;SDS011;38806;51.554;5.704;2023-11-18T07:29:25;26.35;;;15.43;;
50495;SDS011;38806;51.554;5.704;2023-11-18T07:31:27;28.17;;;15.05;;
50495;SDS011;38806;51.554;5.704;2023-11-18T07:33:27;27.17;;;15.93;;
50495;SDS011;38806;51.554;5.704;2023-11-18T07:35:27;24.58;;;14.05;;
50495;SDS011;38806;51.554;5.704;2023-11-18T07:37:27;27.42;;;15.63;;
50495;SDS011;38806;51.554;5.704;2023-11-18T07:39:27;24.70;;;14.90;;
50495;SDS011;38806;51.554;5.704;2023-11-18T07:41:43;26.27;;;15.38;;
50495;SDS011;38806;51.554;5.704;2023-11-18T07:43:44;20.67;;;13.90;;
50495;SDS011;38806;51.554;5.704;2023-11-18T07:45:44;22.23;;;13.90;;
50495;SDS011;38806;51.554;5.704;2023-11-18T07:47:46;29.05;;;14.00;;
50495;SDS011;38806;51.554;5.704;2023-11-18T07:49:46;20.75;;;12.75;;
50495;SDS011;38806;51.554;5.704;2023-11-18T07:51:46;30.38;;;16.88;;
50495;SDS011;38806;51.554;5.704;2023-11-18T07:53:47;24.55;;;15.07;;
50495;SDS011;38806;51.554;5.704;2023-11-18T07:55:47;27.20;;;14.68;;
50495;SDS011;38806;51.554;5.704;2023-11-18T07:57:47;24.83;;;14.70;;
50495;SDS011;38806;51.554;5.704;2023-11-18T07:59:48;25.55;;;14.23;;
50495;SDS011;38806;51.554;5.704;2023-11-18T08:01:48;23.52;;;15.10;;
50495;SDS011;38806;51.554;5.704;2023-11-18T08:03:48;25.77;;;13.45;;
50495;SDS011;38806;51.554;5.704;2023-11-18T08:05:50;23.63;;;13.32;;
50495;SDS011;38806;51.554;5.704;2023-11-18T08:07:51;26.40;;;15.00;;
50495;SDS011;38806;51.554;5.704;2023-11-18T08:09:51;27.27;;;15.27;;
50495;SDS011;38806;51.554;5.704;2023-11-18T08:11:51;26.10;;;14.52;;
50495;SDS011;38806;51.554;5.704;2023-11-18T08:13:53;21.88;;;13.25;;
50495;SDS011;38806;51.554;5.704;2023-11-18T08:15:53;21.98;;;12.52;;
50495;SDS011;38806;51.554;5.704;2023-11-18T08:17:53;25.33;;;14.25;;
50495;SDS011;38806;51.554;5.704;2023-11-18T08:19:53;26.38;;;13.65;;
50495;SDS011;38806;51.554;5.704;2023-11-18T08:21:54;22.98;;;13.00;;
50495;SDS011;38806;51.554;5.704;2023-11-18T08:23:54;19.95;;;13.25;;
50495;SDS011;38806;51.554;5.704;2023-11-18T08:25:55;25.90;;;13.10;;
50495;SDS011;38806;51.554;5.704;2023-11-18T08:27:55;23.42;;;12.27;;
50495;SDS011;38806;51.554;5.704;2023-11-18T08:29:56;20.83;;;12.07;;
50495;SDS011;38806;51.554;5.704;2023-11-18T08:31:56;16.90;;;10.05;;
50495;SDS011;38806;51.554;5.704;2023-11-18T08:33:56;23.35;;;12.32;;
50495;SDS011;38806;51.554;5.704;2023-11-18T08:35:56;25.70;;;12.68;;
50495;SDS011;38806;51.554;5.704;2023-11-18T08:37:57;26.27;;;12.70;;
50495;SDS011;38806;51.554;5.704;2023-11-18T08:39:59;22.40;;;13.13;;
50495;SDS011;38806;51.554;5.704;2023-11-18T08:42:00;19.95;;;12.85;;
50495;SDS011;38806;51.554;5.704;2023-11-18T08:44:01;22.33;;;11.95;;
50495;SDS011;38806;51.554;5.704;2023-11-18T08:46:02;20.80;;;11.57;;
50495;SDS011;38806;51.554;5.704;2023-11-18T08:48:03;26.65;;;10.02;;
50495;SDS011;38806;51.554;5.704;2023-11-18T08:50:10;24.10;;;11.77;;
50495;SDS011;38806;51.554;5.704;2023-11-18T08:52:12;20.38;;;10.07;;
50495;SDS011;38806;51.554;5.704;2023-11-18T08:54:12;17.38;;;10.55;;
50495;SDS011;38806;51.554;5.704;2023-11-18T08:56:22;23.05;;;11.23;;
50495;SDS011;38806;51.554;5.704;2023-11-18T08:58:34;21.20;;;12.13;;
50495;SDS011;38806;51.554;5.704;2023-11-18T09:00:36;21.13;;;10.88;;
50495;SDS011;38806;51.554;5.704;2023-11-18T09:02:45;16.15;;;10.05;;
50495;SDS011;38806;51.554;5.704;2023-11-18T09:04:45;18.40;;;10.43;;
50495;SDS011;38806;51.554;5.704;2023-11-18T09:06:46;24.30;;;8.90;;
50495;SDS011;38806;51.554;5.704;2023-11-18T09:08:48;19.85;;;10.73;;
50495;SDS011;38806;51.554;5.704;2023-11-18T09:10:54;19.90;;;9.40;;
50495;SDS011;38806;51.554;5.704;2023-11-18T09:12:54;19.52;;;9.32;;
50495;SDS011;38806;51.554;5.704;2023-11-18T09:14:55;19.88;;;8.68;;
50495;SDS011;38806;51.554;5.704;2023-11-18T09:16:55;20.80;;;9.23;;
50495;SDS011;38806;51.554;5.704;2023-11-18T09:18:58;14.23;;;8.18;;
50495;SDS011;38806;51.554;5.704;2023-11-18T09:21:02;17.30;;;9.40;;
50495;SDS011;38806;51.554;5.704;2023-11-18T09:23:03;18.48;;;9.27;;
50495;SDS011;38806;51.554;5.704;2023-11-18T09:25:05;15.32;;;8.23;;
50495;SDS011;38806;51.554;5.704;2023-11-18T09:27:09;13.23;;;7.45;;
50495;SDS011;38806;51.554;5.704;2023-11-18T09:29:09;15.60;;;7.03;;
50495;SDS011;38806;51.554;5.704;2023-11-18T09:31:09;13.63;;;6.88;;
50495;SDS011;38806;51.554;5.704;2023-11-18T09:33:12;13.40;;;7.22;;
50495;SDS011;38806;51.554;5.704;2023-11-18T09:35:14;13.75;;;7.45;;
50495;SDS011;38806;51.554;5.704;2023-11-18T09:37:14;16.77;;;8.05;;
50495;SDS011;38806;51.554;5.704;2023-11-18T09:39:15;13.30;;;7.00;;
50495;SDS011;38806;51.554;5.704;2023-11-18T09:41:29;23.48;;;6.88;;
50495;SDS011;38806;51.554;5.704;2023-11-18T09:43:29;15.77;;;7.63;;
50495;SDS011;38806;51.554;5.704;2023-11-18T09:45:32;14.75;;;7.10;;
50495;SDS011;38806;51.554;5.704;2023-11-18T09:47:34;12.60;;;6.30;;
50495;SDS011;38806;51.554;5.704;2023-11-18T09:49:40;12.90;;;5.78;;
50495;SDS011;38806;51.554;5.704;2023-11-18T09:51:42;10.50;;;6.15;;
50495;SDS011;38806;51.554;5.704;2023-11-18T09:53:42;13.65;;;7.03;;
50495;SDS011;38806;51.554;5.704;2023-11-18T09:55:49;11.50;;;6.82;;
50495;SDS011;38806;51.554;5.704;2023-11-18T09:57:55;16.20;;;8.35;;
50495;SDS011;38806;51.554;5.704;2023-11-18T10:01:59;11.38;;;6.45;;
50495;SDS011;38806;51.554;5.704;2023-11-18T10:04:00;12.18;;;6.30;;
50495;SDS011;38806;51.554;5.704;2023-11-18T10:06:06;12.00;;;5.93;;
50495;SDS011;38806;51.554;5.704;2023-11-18T10:08:06;18.27;;;7.68;;
50495;SDS011;38806;51.554;5.704;2023-11-18T10:10:07;14.10;;;7.00;;
50495;SDS011;38806;51.554;5.704;2023-11-18T10:12:14;14.53;;;5.97;;
50495;SDS011;38806;51.554;5.704;2023-11-18T10:14:16;10.95;;;6.45;;
50495;SDS011;38806;51.554;5.704;2023-11-18T10:16:17;14.00;;;6.88;;
50495;SDS011;38806;51.554;5.704;2023-11-18T10:18:18;13.88;;;5.68;;
50495;SDS011;38806;51.554;5.704;2023-11-18T10:22:47;14.65;;;6.88;;
50495;SDS011;38806;51.554;5.704;2023-11-18T10:24:48;17.88;;;9.10;;
50495;SDS011;38806;51.554;5.704;2023-11-18T10:26:55;12.80;;;6.63;;
50495;SDS011;38806;51.554;5.704;2023-11-18T10:29:02;13.88;;;6.10;;
50495;SDS011;38806;51.554;5.704;2023-11-18T10:31:08;15.07;;;7.57;;
50495;SDS011;38806;51.554;5.704;2023-11-18T10:33:09;12.23;;;7.13;;
50495;SDS011;38806;51.554;5.704;2023-11-18T10:35:11;12.55;;;6.63;;
50495;SDS011;38806;51.554;5.704;2023-11-18T10:37:12;18.75;;;7.65;;
50495;SDS011;38806;51.554;5.704;2023-11-18T10:39:13;16.48;;;7.50;;
50495;SDS011;38806;51.554;5.704;2023-11-18T10:41:16;11.73;;;6.53;;
50495;SDS011;38806;51.554;5.704;2023-11-18T10:43:19;14.52;;;7.63;;
50495;SDS011;38806;51.554;5.704;2023-11-18T10:45:25;13.90;;;8.05;;
50495;SDS011;38806;51.554;5.704;2023-11-18T10:47:27;13.80;;;7.33;;
50495;SDS011;38806;51.554;5.704;2023-11-18T10:49:28;12.57;;;7.57;;
50495;SDS011;38806;51.554;5.704;2023-11-18T10:51:29;13.68;;;7.30;;
50495;SDS011;38806;51.554;5.704;2023-11-18T10:53:33;10.45;;;5.47;;
50495;SDS011;38806;51.554;5.704;2023-11-18T10:55:37;14.55;;;7.22;;
50495;SDS011;38806;51.554;5.704;2023-11-18T10:57:38;13.88;;;7.22;;
50495;SDS011;38806;51.554;5.704;2023-11-18T10:59:57;15.68;;;7.05;;
50495;SDS011;38806;51.554;5.704;2023-11-18T11:01:58;14.23;;;7.85;;
50495;SDS011;38806;51.554;5.704;2023-11-18T11:03:58;14.95;;;7.25;;
50495;SDS011;38806;51.554;5.704;2023-11-18T11:05:58;15.50;;;6.95;;
50495;SDS011;38806;51.554;5.704;2023-11-18T11:07:59;13.95;;;8.63;;
50495;SDS011;38806;51.554;5.704;2023-11-18T11:10:00;14.10;;;7.63;;
50495;SDS011;38806;51.554;5.704;2023-11-18T11:12:04;15.15;;;6.90;;
50495;SDS011;38806;51.554;5.704;2023-11-18T11:14:08;11.65;;;6.38;;
50495;SDS011;38806;51.554;5.704;2023-11-18T11:16:10;15.82;;;6.82;;
50495;SDS011;38806;51.554;5.704;2023-11-18T11:18:12;11.35;;;6.72;;
50495;SDS011;38806;51.554;5.704;2023-11-18T11:20:18;11.57;;;6.38;;
50495;SDS011;38806;51.554;5.704;2023-11-18T11:22:37;11.27;;;6.30;;
50495;SDS011;38806;51.554;5.704;2023-11-18T11:24:49;12.77;;;6.55;;
50495;SDS011;38806;51.554;5.704;2023-11-18T11:27:10;13.57;;;7.70;;
50495;SDS011;38806;51.554;5.704;2023-11-18T11:31:26;15.20;;;6.78;;
50495;SDS011;38806;51.554;5.704;2023-11-18T11:33:33;11.45;;;5.63;;
50495;SDS011;38806;51.554;5.704;2023-11-18T11:35:41;11.95;;;6.03;;
50495;SDS011;38806;51.554;5.704;2023-11-18T11:37:45;13.43;;;5.60;;
50495;SDS011;38806;51.554;5.704;2023-11-18T11:39:47;13.27;;;6.80;;
50495;SDS011;38806;51.554;5.704;2023-11-18T11:41:51;15.50;;;6.50;;
50495;SDS011;38806;51.554;5.704;2023-11-18T11:43:52;16.70;;;6.55;;
50495;SDS011;38806;51.554;5.704;2023-11-18T11:45:58;12.52;;;6.25;;
50495;SDS011;38806;51.554;5.704;2023-11-18T11:47:59;13.07;;;5.95;;
50495;SDS011;38806;51.554;5.704;2023-11-18T11:50:29;13.55;;;5.72;;
50495;SDS011;38806;51.554;5.704;2023-11-18T11:52:32;17.48;;;6.25;;
50495;SDS011;38806;51.554;5.704;2023-11-18T11:54:42;17.48;;;7.18;;
50495;SDS011;38806;51.554;5.704;2023-11-18T11:56:45;11.88;;;5.70;;
50495;SDS011;38806;51.554;5.704;2023-11-18T11:59:01;10.75;;;6.05;;
50495;SDS011;38806;51.554;5.704;2023-11-18T12:01:47;12.80;;;5.57;;
50495;SDS011;38806;51.554;5.704;2023-11-18T12:03:38;12.15;;;5.30;;